Circle Line Xii — WM8392 — position and weather

sailwx.info

Track history (hours):
 
Tides and Currents Weather Stations Pressure Air Temp Water Temp Dewpoint Dewpoint Depression Visibility Wind Speed Wind Dir Waves Ship Positions

Circle Line Xii

Owner: CIRCLE LINE SIGHTSEEING YACHTS, NEW YORK, NY. More information available from US FCC via Universal Licensing System and Coast Guard Vessel Documentation Center.

Last reported at 2016-Jul-25 21:33 UTC. Time now 2016-Jul-26 00:43 UTC.
Position N 40°42' W 074°01'.

MMSI: 367032250.

Date/timePositionNaut miles runAvg speedWind from/ knotsBaromVisibWave heightAir tempDewpointWater temp
2016-Jul-25 21:33N 40°42' W 074°01'4 3.6
2016-Jul-25 20:33N 40°46' W 074°00'0 0.0
2016-Jul-25 19:33N 40°46' W 074°00'0 0.1
2016-Jul-25 18:33N 40°46' W 074°00'0 0.1
2016-Jul-25 17:31N 40°46' W 074°00'0 0.0
2016-Jul-25 16:33N 40°46' W 074°00'4 4.3
2016-Jul-25 15:33N 40°42' W 074°02'4 4.2
2016-Jul-25 14:31N 40°46' W 074°00'0 0.0
2016-Jul-25 13:31N 40°46' W 074°00'3 0.1
2016-Jul-24 00:33N 40°43' W 074°01'1 1.1
2016-Jul-23 23:33N 40°42' W 074°01'4 3.9
2016-Jul-23 22:31N 40°46' W 074°00'0 0.0
2016-Jul-23 21:31N 40°46' W 074°00'2 1.0
2016-Jul-23 19:26N 40°46' W 073°57'5 6.2
2016-Jul-23 18:33N 40°42' W 074°02'4 4.2
2016-Jul-23 17:33N 40°46' W 074°00'0 0.0
2016-Jul-23 16:33N 40°46' W 074°00'0 0.0
2016-Jul-23 15:33N 40°46' W 074°00'0 0.0
2016-Jul-23 14:33N 40°46' W 074°00'0 0.0
2016-Jul-23 13:32N 40°46' W 074°00'1 0.1
2016-Jul-23 00:33N 40°45' W 074°01'4 3.8
2016-Jul-22 23:33N 40°41' W 074°03'5 4.7
2016-Jul-22 22:31N 40°46' W 074°00'3 3.5
2016-Jul-22 21:33N 40°42' W 073°60'3 3.2
2016-Jul-22 20:30N 40°46' W 074°00'0 0.0
2016-Jul-22 19:33N 40°46' W 074°00'0 0.5
2016-Jul-22 18:33N 40°45' W 074°01'0 0.5
2016-Jul-22 17:32N 40°46' W 074°00'2 1.6
2016-Jul-22 16:33N 40°44' W 074°01'1 1.3
2016-Jul-22 15:33N 40°43' W 074°02'0 0.0
2016-Jul-21 00:33N 40°43' W 074°01'2 2.1
2016-Jul-20 23:33N 40°41' W 074°03'5 4.7
2016-Jul-20 22:31N 40°46' W 074°00'0 0.0
2016-Jul-20 21:31N 40°46' W 074°00'1 1.1
2016-Jul-20 20:33N 40°45' W 074°01'1 1.1
2016-Jul-20 19:31N 40°46' W 074°00'2 1.1
2016-Jul-20 17:24N 40°46' W 073°57'6 7.1
2016-Jul-20 16:33N 40°41' W 074°02'5 0.2
2016-Jul-19 20:25N 40°46' W 074°00'5 5.5
2016-Jul-19 19:33N 40°41' W 074°01'5 4.7
2016-Jul-19 18:33N 40°46' W 074°00'0 0.0
2016-Jul-18 22:31N 40°46' W 074°00'4 4.0
2016-Jul-18 21:33N 40°42' W 074°00'4 3.7
2016-Jul-18 20:32N 40°46' W 074°00'0 0.0
2016-Jul-18 19:32N 40°46' W 074°00'1 1.0
2016-Jul-18 18:34N 40°45' W 074°01'1 1.0
2016-Jul-18 17:33N 40°46' W 074°00'2 2.2
2016-Jul-18 16:34N 40°44' W 074°01'3 2.5
2016-Jul-18 15:34N 40°41' W 074°02'4 0.1
2016-Jul-17 00:33N 40°45' W 074°01'3 3.3
2016-Jul-16 23:33N 40°42' W 074°01'4 3.8
2016-Jul-16 22:32N 40°46' W 074°00'0 0.0
2016-Jul-16 21:32N 40°46' W 074°00'0 0.0
2016-Jul-16 20:32N 40°46' W 074°00'6 6.1
2016-Jul-16 19:33N 40°40' W 074°01'6 5.8
2016-Jul-16 18:31N 40°46' W 074°00'0 0.0
2016-Jul-16 17:31N 40°46' W 074°00'0 0.0
2016-Jul-16 16:31N 40°46' W 074°00'4 0.2
2016-Jul-16 00:33N 40°42' W 074°01'1 0.9
2016-Jul-15 23:33N 40°42' W 074°02'4 3.8
2016-Jul-15 22:32N 40°46' W 074°00'3 3.4
2016-Jul-15 21:33N 40°43' W 073°59'  
Track history (hours):
 
Tides and Currents Weather Stations Pressure Air Temp Water Temp Dewpoint Dewpoint Depression Visibility Wind Speed Wind Dir Waves Ship Positions

Circle Line Xii

Owner: CIRCLE LINE SIGHTSEEING YACHTS, NEW YORK, NY. More information available from US FCC via Universal Licensing System and Coast Guard Vessel Documentation Center.

Last reported at 2016-Jul-25 21:33 UTC. Time now 2016-Jul-26 00:43 UTC.
Position N 40°42' W 074°01'.

MMSI: 367032250.

Date/timePositionNaut miles runAvg speedWind from/ knotsBaromVisibWave heightAir tempDewpointWater temp
2016-Jul-25 21:33N 40°42' W 074°01'4 3.6
2016-Jul-25 20:33N 40°46' W 074°00'0 0.0
2016-Jul-25 19:33N 40°46' W 074°00'0 0.1
2016-Jul-25 18:33N 40°46' W 074°00'0 0.1
2016-Jul-25 17:31N 40°46' W 074°00'0 0.0
2016-Jul-25 16:33N 40°46' W 074°00'4 4.3
2016-Jul-25 15:33N 40°42' W 074°02'4 4.2
2016-Jul-25 14:31N 40°46' W 074°00'0 0.0
2016-Jul-25 13:31N 40°46' W 074°00'3 0.1
2016-Jul-24 00:33N 40°43' W 074°01'1 1.1
2016-Jul-23 23:33N 40°42' W 074°01'4 3.9
2016-Jul-23 22:31N 40°46' W 074°00'0 0.0
2016-Jul-23 21:31N 40°46' W 074°00'2 1.0
2016-Jul-23 19:26N 40°46' W 073°57'5 6.2
2016-Jul-23 18:33N 40°42' W 074°02'4 4.2
2016-Jul-23 17:33N 40°46' W 074°00'0 0.0
2016-Jul-23 16:33N 40°46' W 074°00'0 0.0
2016-Jul-23 15:33N 40°46' W 074°00'0 0.0
2016-Jul-23 14:33N 40°46' W 074°00'0 0.0
2016-Jul-23 13:32N 40°46' W 074°00'1 0.1
2016-Jul-23 00:33N 40°45' W 074°01'4 3.8
2016-Jul-22 23:33N 40°41' W 074°03'5 4.7
2016-Jul-22 22:31N 40°46' W 074°00'3 3.5
2016-Jul-22 21:33N 40°42' W 073°60'3 3.2
2016-Jul-22 20:30N 40°46' W 074°00'0 0.0
2016-Jul-22 19:33N 40°46' W 074°00'0 0.5
2016-Jul-22 18:33N 40°45' W 074°01'0 0.5
2016-Jul-22 17:32N 40°46' W 074°00'2 1.6
2016-Jul-22 16:33N 40°44' W 074°01'1 1.3
2016-Jul-22 15:33N 40°43' W 074°02'0 0.0
2016-Jul-21 00:33N 40°43' W 074°01'2 2.1
2016-Jul-20 23:33N 40°41' W 074°03'5 4.7
2016-Jul-20 22:31N 40°46' W 074°00'0 0.0
2016-Jul-20 21:31N 40°46' W 074°00'1 1.1
2016-Jul-20 20:33N 40°45' W 074°01'1 1.1
2016-Jul-20 19:31N 40°46' W 074°00'2 1.1
2016-Jul-20 17:24N 40°46' W 073°57'6 7.1
2016-Jul-20 16:33N 40°41' W 074°02'5 0.2
2016-Jul-19 20:25N 40°46' W 074°00'5 5.5
2016-Jul-19 19:33N 40°41' W 074°01'5 4.7
2016-Jul-19 18:33N 40°46' W 074°00'0 0.0
2016-Jul-18 22:31N 40°46' W 074°00'4 4.0
2016-Jul-18 21:33N 40°42' W 074°00'4 3.7
2016-Jul-18 20:32N 40°46' W 074°00'0 0.0
2016-Jul-18 19:32N 40°46' W 074°00'1 1.0
2016-Jul-18 18:34N 40°45' W 074°01'1 1.0
2016-Jul-18 17:33N 40°46' W 074°00'2 2.2
2016-Jul-18 16:34N 40°44' W 074°01'3 2.5
2016-Jul-18 15:34N 40°41' W 074°02'4 0.1
2016-Jul-17 00:33N 40°45' W 074°01'3 3.3
2016-Jul-16 23:33N 40°42' W 074°01'4 3.8
2016-Jul-16 22:32N 40°46' W 074°00'0 0.0
2016-Jul-16 21:32N 40°46' W 074°00'0 0.0
2016-Jul-16 20:32N 40°46' W 074°00'6 6.1
2016-Jul-16 19:33N 40°40' W 074°01'6 5.8
2016-Jul-16 18:31N 40°46' W 074°00'0 0.0
2016-Jul-16 17:31N 40°46' W 074°00'0 0.0
2016-Jul-16 16:31N 40°46' W 074°00'4 0.2
2016-Jul-16 00:33N 40°42' W 074°01'1 0.9
2016-Jul-15 23:33N 40°42' W 074°02'4 3.8
2016-Jul-15 22:32N 40°46' W 074°00'3 3.4
2016-Jul-15 21:33N 40°43' W 073°59'  

Dump ship's entire track history